sensor_id;sensor_type;location;lat;lon;timestamp;pressure;altitude;pressure_sealevel;temperature;humidity
29121;BME280;16191;49.548;8.658;2023-09-18T00:00:31;99636.31;;;24.35;77.69
29121;BME280;16191;49.548;8.658;2023-09-18T00:02:59;99628.47;;;24.49;75.39
29121;BME280;16191;49.548;8.658;2023-09-18T00:05:30;99632.81;;;24.50;75.66
29121;BME280;16191;49.548;8.658;2023-09-18T00:07:57;99641.50;;;24.44;76.20
29121;BME280;16191;49.548;8.658;2023-09-18T00:10:25;99632.16;;;24.40;76.55
29121;BME280;16191;49.548;8.658;2023-09-18T00:12:52;99626.78;;;24.48;75.46
29121;BME280;16191;49.548;8.658;2023-09-18T00:15:19;99622.97;;;24.51;75.05
29121;BME280;16191;49.548;8.658;2023-09-18T00:17:45;99606.31;;;24.57;74.08
29121;BME280;16191;49.548;8.658;2023-09-18T00:20:12;99613.31;;;24.50;74.62
29121;BME280;16191;49.548;8.658;2023-09-18T00:22:40;99603.97;;;24.38;76.40
29121;BME280;16191;49.548;8.658;2023-09-18T00:25:06;99606.16;;;24.42;75.77
29121;BME280;16191;49.548;8.658;2023-09-18T00:27:33;99590.00;;;24.44;75.07
29121;BME280;16191;49.548;8.658;2023-09-18T00:30:06;99600.97;;;24.41;75.24
29121;BME280;16191;49.548;8.658;2023-09-18T00:32:32;99594.97;;;24.39;76.49
29121;BME280;16191;49.548;8.658;2023-09-18T00:34:59;99585.50;;;24.44;75.55
29121;BME280;16191;49.548;8.658;2023-09-18T00:37:26;99568.97;;;24.41;76.73
29121;BME280;16191;49.548;8.658;2023-09-18T00:39:53;99564.16;;;24.36;77.58
29121;BME280;16191;49.548;8.658;2023-09-18T00:42:20;99562.81;;;24.40;77.39
29121;BME280;16191;49.548;8.658;2023-09-18T00:44:49;99569.97;;;24.32;78.27
29121;BME280;16191;49.548;8.658;2023-09-18T00:47:17;99565.13;;;24.27;79.28
29121;BME280;16191;49.548;8.658;2023-09-18T00:49:47;99565.50;;;24.24;79.49
29121;BME280;16191;49.548;8.658;2023-09-18T00:52:15;99562.16;;;24.38;77.36
29121;BME280;16191;49.548;8.658;2023-09-18T00:54:43;99566.81;;;24.36;77.07
29121;BME280;16191;49.548;8.658;2023-09-18T00:57:11;99565.16;;;24.35;77.01
29121;BME280;16191;49.548;8.658;2023-09-18T00:59:38;99569.31;;;24.38;76.48
29121;BME280;16191;49.548;8.658;2023-09-18T01:02:06;99562.66;;;24.34;76.98
29121;BME280;16191;49.548;8.658;2023-09-18T01:04:33;99562.31;;;24.29;77.65
29121;BME280;16191;49.548;8.658;2023-09-18T01:07:00;99562.81;;;24.24;77.95
29121;BME280;16191;49.548;8.658;2023-09-18T01:09:31;99562.97;;;24.22;78.40
29121;BME280;16191;49.548;8.658;2023-09-18T01:15:17;99548.97;;;24.20;78.34
29121;BME280;16191;49.548;8.658;2023-09-18T01:17:47;99556.63;;;24.23;77.68
29121;BME280;16191;49.548;8.658;2023-09-18T01:20:34;99553.63;;;24.18;79.21
29121;BME280;16191;49.548;8.658;2023-09-18T01:23:21;99552.28;;;24.14;79.55
29121;BME280;16191;49.548;8.658;2023-09-18T01:26:08;99546.47;;;24.19;79.11
29121;BME280;16191;49.548;8.658;2023-09-18T01:28:54;99538.63;;;24.17;79.90
29121;BME280;16191;49.548;8.658;2023-09-18T01:31:41;99544.47;;;24.21;79.84
29121;BME280;16191;49.548;8.658;2023-09-18T01:35:09;99545.47;;;24.20;79.96
29121;BME280;16191;49.548;8.658;2023-09-18T01:37:30;99545.28;;;24.21;79.91
29121;BME280;16191;49.548;8.658;2023-09-18T01:39:57;99555.13;;;24.13;80.81
29121;BME280;16191;49.548;8.658;2023-09-18T01:42:27;99563.31;;;24.27;78.42
29121;BME280;16191;49.548;8.658;2023-09-18T01:44:54;99565.50;;;24.24;78.45
29121;BME280;16191;49.548;8.658;2023-09-18T01:47:22;99563.13;;;24.21;78.51
29121;BME280;16191;49.548;8.658;2023-09-18T01:49:53;99569.00;;;24.24;78.65
29121;BME280;16191;49.548;8.658;2023-09-18T01:52:20;99572.63;;;24.23;79.00
29121;BME280;16191;49.548;8.658;2023-09-18T01:54:47;99587.44;;;24.18;80.26
29121;BME280;16191;49.548;8.658;2023-09-18T01:57:14;99620.56;;;23.99;83.10
29121;BME280;16191;49.548;8.658;2023-09-18T01:59:41;99649.66;;;23.76;92.20
29121;BME280;16191;49.548;8.658;2023-09-18T02:02:08;99678.88;;;23.60;99.54
29121;BME280;16191;49.548;8.658;2023-09-18T02:04:37;99705.34;;;23.62;100.00
29121;BME280;16191;49.548;8.658;2023-09-18T02:07:24;99704.59;;;23.51;100.00
29121;BME280;16191;49.548;8.658;2023-09-18T02:09:51;99706.97;;;23.29;100.00
29121;BME280;16191;49.548;8.658;2023-09-18T02:12:18;99710.31;;;23.05;100.00
29121;BME280;16191;49.548;8.658;2023-09-18T02:14:45;99698.25;;;22.93;100.00
29121;BME280;16191;49.548;8.658;2023-09-18T02:17:12;99676.81;;;22.94;100.00
29121;BME280;16191;49.548;8.658;2023-09-18T02:19:38;99650.69;;;22.98;100.00
29121;BME280;16191;49.548;8.658;2023-09-18T02:22:05;99635.06;;;22.77;100.00
29121;BME280;16191;49.548;8.658;2023-09-18T02:24:31;99642.94;;;22.61;100.00
29121;BME280;16191;49.548;8.658;2023-09-18T02:26:58;99635.69;;;22.53;100.00
29121;BME280;16191;49.548;8.658;2023-09-18T02:29:25;99626.06;;;22.52;100.00
29121;BME280;16191;49.548;8.658;2023-09-18T02:31:52;99629.19;;;22.47;100.00
29121;BME280;16191;49.548;8.658;2023-09-18T02:34:19;99625.34;;;22.24;100.00
29121;BME280;16191;49.548;8.658;2023-09-18T02:36:46;99645.91;;;22.22;100.00
29121;BME280;16191;49.548;8.658;2023-09-18T02:39:13;99656.94;;;22.27;100.00
29121;BME280;16191;49.548;8.658;2023-09-18T02:41:40;99643.78;;;22.26;100.00
29121;BME280;16191;49.548;8.658;2023-09-18T02:44:06;99645.66;;;22.15;100.00
29121;BME280;16191;49.548;8.658;2023-09-18T02:46:33;99641.00;;;22.00;100.00
29121;BME280;16191;49.548;8.658;2023-09-18T02:49:00;99637.13;;;21.94;100.00
29121;BME280;16191;49.548;8.658;2023-09-18T02:51:26;99643.66;;;22.00;100.00
29121;BME280;16191;49.548;8.658;2023-09-18T02:53:53;99641.56;;;22.03;100.00
29121;BME280;16191;49.548;8.658;2023-09-18T02:56:20;99630.66;;;22.06;100.00
29121;BME280;16191;49.548;8.658;2023-09-18T02:58:47;99629.97;;;22.04;100.00
29121;BME280;16191;49.548;8.658;2023-09-18T03:01:13;99615.41;;;21.99;100.00
29121;BME280;16191;49.548;8.658;2023-09-18T03:03:40;99611.84;;;21.90;100.00
29121;BME280;16191;49.548;8.658;2023-09-18T03:06:08;99604.25;;;21.95;100.00
29121;BME280;16191;49.548;8.658;2023-09-18T03:08:36;99582.31;;;21.93;100.00
29121;BME280;16191;49.548;8.658;2023-09-18T03:11:11;99576.84;;;21.95;100.00
29121;BME280;16191;49.548;8.658;2023-09-18T03:13:43;99567.22;;;21.94;100.00
29121;BME280;16191;49.548;8.658;2023-09-18T03:16:11;99569.97;;;21.84;100.00
29121;BME280;16191;49.548;8.658;2023-09-18T03:18:39;99571.25;;;21.80;100.00
29121;BME280;16191;49.548;8.658;2023-09-18T03:21:05;99566.13;;;21.69;100.00
29121;BME280;16191;49.548;8.658;2023-09-18T03:23:32;99567.88;;;21.60;100.00
29121;BME280;16191;49.548;8.658;2023-09-18T03:25:59;99579.19;;;21.62;100.00
29121;BME280;16191;49.548;8.658;2023-09-18T03:28:26;99577.13;;;21.56;100.00
29121;BME280;16191;49.548;8.658;2023-09-18T03:30:53;99588.69;;;21.65;100.00
29121;BME280;16191;49.548;8.658;2023-09-18T03:33:22;99582.13;;;21.59;100.00
29121;BME280;16191;49.548;8.658;2023-09-18T03:35:51;99589.25;;;21.59;100.00
29121;BME280;16191;49.548;8.658;2023-09-18T03:38:24;99602.25;;;21.62;100.00
29121;BME280;16191;49.548;8.658;2023-09-18T03:40:51;99598.47;;;21.64;100.00
29121;BME280;16191;49.548;8.658;2023-09-18T03:43:19;99604.34;;;21.58;100.00
29121;BME280;16191;49.548;8.658;2023-09-18T03:45:46;99614.16;;;21.58;100.00
29121;BME280;16191;49.548;8.658;2023-09-18T03:48:12;99606.94;;;21.68;100.00
29121;BME280;16191;49.548;8.658;2023-09-18T03:50:40;99618.88;;;21.64;100.00
29121;BME280;16191;49.548;8.658;2023-09-18T03:53:09;99620.56;;;21.55;100.00
29121;BME280;16191;49.548;8.658;2023-09-18T03:55:36;99620.19;;;21.50;100.00
29121;BME280;16191;49.548;8.658;2023-09-18T03:58:04;99626.16;;;21.62;100.00
29121;BME280;16191;49.548;8.658;2023-09-18T04:00:31;99620.63;;;21.73;100.00
29121;BME280;16191;49.548;8.658;2023-09-18T04:02:58;99632.91;;;21.74;100.00
29121;BME280;16191;49.548;8.658;2023-09-18T04:05:26;99634.97;;;21.80;100.00
29121;BME280;16191;49.548;8.658;2023-09-18T04:07:55;99637.63;;;21.80;100.00
29121;BME280;16191;49.548;8.658;2023-09-18T04:10:21;99653.19;;;21.93;100.00
29121;BME280;16191;49.548;8.658;2023-09-18T04:12:51;99659.94;;;21.87;100.00
29121;BME280;16191;49.548;8.658;2023-09-18T04:15:19;99681.94;;;21.79;100.00
29121;BME280;16191;49.548;8.658;2023-09-18T04:17:47;99667.72;;;21.71;100.00
29121;BME280;16191;49.548;8.658;2023-09-18T04:20:14;99663.31;;;21.62;100.00
29121;BME280;16191;49.548;8.658;2023-09-18T04:22:46;99672.72;;;21.46;100.00
29121;BME280;16191;49.548;8.658;2023-09-18T04:25:17;99652.56;;;21.16;100.00
29121;BME280;16191;49.548;8.658;2023-09-18T04:27:46;99664.75;;;21.00;100.00
29121;BME280;16191;49.548;8.658;2023-09-18T04:30:12;99627.91;;;20.97;100.00
29121;BME280;16191;49.548;8.658;2023-09-18T04:32:40;99611.44;;;20.83;100.00
29121;BME280;16191;49.548;8.658;2023-09-18T04:35:08;99589.44;;;20.73;100.00
29121;BME280;16191;49.548;8.658;2023-09-18T04:37:36;99578.78;;;20.83;100.00
29121;BME280;16191;49.548;8.658;2023-09-18T04:40:06;99569.91;;;20.74;100.00
29121;BME280;16191;49.548;8.658;2023-09-18T04:42:36;99569.91;;;20.65;100.00
29121;BME280;16191;49.548;8.658;2023-09-18T04:45:04;99556.25;;;20.69;100.00
29121;BME280;16191;49.548;8.658;2023-09-18T04:47:32;99571.16;;;20.70;100.00
29121;BME280;16191;49.548;8.658;2023-09-18T04:49:59;99569.63;;;20.68;100.00
29121;BME280;16191;49.548;8.658;2023-09-18T04:52:26;99573.53;;;20.73;100.00
29121;BME280;16191;49.548;8.658;2023-09-18T04:54:53;99580.38;;;20.66;100.00
29121;BME280;16191;49.548;8.658;2023-09-18T04:57:20;99572.72;;;20.63;100.00
29121;BME280;16191;49.548;8.658;2023-09-18T04:59:49;99573.97;;;20.59;100.00
29121;BME280;16191;49.548;8.658;2023-09-18T05:02:31;99569.63;;;20.58;100.00
29121;BME280;16191;49.548;8.658;2023-09-18T05:04:58;99549.59;;;20.56;100.00
29121;BME280;16191;49.548;8.658;2023-09-18T05:07:24;99530.91;;;20.38;100.00
29121;BME280;16191;49.548;8.658;2023-09-18T05:09:51;99531.00;;;20.36;100.00
29121;BME280;16191;49.548;8.658;2023-09-18T05:12:18;99540.09;;;20.34;100.00
29121;BME280;16191;49.548;8.658;2023-09-18T05:14:45;99544.84;;;20.30;100.00
29121;BME280;16191;49.548;8.658;2023-09-18T05:17:15;99535.09;;;20.31;100.00
29121;BME280;16191;49.548;8.658;2023-09-18T05:19:43;99549.03;;;20.33;100.00
29121;BME280;16191;49.548;8.658;2023-09-18T05:22:10;99561.31;;;20.34;100.00
29121;BME280;16191;49.548;8.658;2023-09-18T05:24:40;99553.78;;;20.29;100.00
29121;BME280;16191;49.548;8.658;2023-09-18T05:27:06;99565.63;;;20.35;100.00
29121;BME280;16191;49.548;8.658;2023-09-18T05:29:34;99562.69;;;20.38;100.00
29121;BME280;16191;49.548;8.658;2023-09-18T05:32:04;99556.28;;;20.40;100.00
29121;BME280;16191;49.548;8.658;2023-09-18T05:34:31;99569.09;;;20.35;100.00
29121;BME280;16191;49.548;8.658;2023-09-18T05:36:58;99588.34;;;20.37;100.00
29121;BME280;16191;49.548;8.658;2023-09-18T05:39:25;99595.34;;;20.38;100.00
29121;BME280;16191;49.548;8.658;2023-09-18T05:41:52;99608.81;;;20.35;100.00
29121;BME280;16191;49.548;8.658;2023-09-18T05:44:18;99618.06;;;20.41;100.00
29121;BME280;16191;49.548;8.658;2023-09-18T05:46:45;99622.06;;;20.35;100.00
29121;BME280;16191;49.548;8.658;2023-09-18T05:49:12;99640.94;;;20.32;100.00
29121;BME280;16191;49.548;8.658;2023-09-18T05:51:39;99641.63;;;20.25;100.00
29121;BME280;16191;49.548;8.658;2023-09-18T05:54:05;99647.34;;;20.10;100.00
29121;BME280;16191;49.548;8.658;2023-09-18T05:56:33;99641.31;;;19.89;100.00
29121;BME280;16191;49.548;8.658;2023-09-18T05:59:00;99652.16;;;19.86;100.00
29121;BME280;16191;49.548;8.658;2023-09-18T06:01:26;99615.78;;;19.98;100.00
29121;BME280;16191;49.548;8.658;2023-09-18T06:03:54;99616.66;;;20.08;100.00
29121;BME280;16191;49.548;8.658;2023-09-18T06:06:20;99628.78;;;20.10;100.00
29121;BME280;16191;49.548;8.658;2023-09-18T06:08:47;99612.06;;;20.10;100.00
29121;BME280;16191;49.548;8.658;2023-09-18T06:11:14;99609.13;;;20.13;100.00
29121;BME280;16191;49.548;8.658;2023-09-18T06:13:40;99601.72;;;20.16;100.00
29121;BME280;16191;49.548;8.658;2023-09-18T06:16:07;99634.06;;;19.91;100.00
29121;BME280;16191;49.548;8.658;2023-09-18T06:18:35;99636.53;;;19.93;100.00
29121;BME280;16191;49.548;8.658;2023-09-18T06:21:04;99641.31;;;19.99;100.00
29121;BME280;16191;49.548;8.658;2023-09-18T06:23:31;99634.06;;;20.01;100.00
29121;BME280;16191;49.548;8.658;2023-09-18T06:25:59;99636.88;;;20.09;100.00
29121;BME280;16191;49.548;8.658;2023-09-18T06:28:25;99642.28;;;19.98;100.00
29121;BME280;16191;49.548;8.658;2023-09-18T06:30:52;99652.88;;;19.98;100.00
29121;BME280;16191;49.548;8.658;2023-09-18T06:33:20;99651.63;;;20.02;100.00
29121;BME280;16191;49.548;8.658;2023-09-18T06:35:47;99655.50;;;19.98;100.00
29121;BME280;16191;49.548;8.658;2023-09-18T06:38:15;99657.91;;;20.01;100.00
29121;BME280;16191;49.548;8.658;2023-09-18T06:40:42;99671.00;;;20.02;100.00
29121;BME280;16191;49.548;8.658;2023-09-18T06:43:08;99670.34;;;20.10;100.00
29121;BME280;16191;49.548;8.658;2023-09-18T06:45:35;99680.50;;;20.14;100.00
29121;BME280;16191;49.548;8.658;2023-09-18T06:48:04;99702.78;;;20.02;100.00
29121;BME280;16191;49.548;8.658;2023-09-18T06:50:31;99693.47;;;20.08;100.00
29121;BME280;16191;49.548;8.658;2023-09-18T06:52:58;99694.53;;;19.96;100.00
29121;BME280;16191;49.548;8.658;2023-09-18T06:55:25;99692.63;;;20.07;100.00
29121;BME280;16191;49.548;8.658;2023-09-18T06:57:51;99708.25;;;20.10;100.00
29121;BME280;16191;49.548;8.658;2023-09-18T07:00:18;99721.75;;;20.17;100.00
29121;BME280;16191;49.548;8.658;2023-09-18T07:02:47;99718.16;;;20.18;100.00
29121;BME280;16191;49.548;8.658;2023-09-18T07:05:16;99716.47;;;20.07;100.00
29121;BME280;16191;49.548;8.658;2023-09-18T07:07:43;99710.03;;;20.00;100.00
29121;BME280;16191;49.548;8.658;2023-09-18T07:10:10;99709.22;;;20.09;100.00
29121;BME280;16191;49.548;8.658;2023-09-18T07:12:36;99716.59;;;20.06;100.00
29121;BME280;16191;49.548;8.658;2023-09-18T07:15:03;99716.72;;;20.14;100.00
29121;BME280;16191;49.548;8.658;2023-09-18T07:17:32;99723.72;;;20.15;100.00
29121;BME280;16191;49.548;8.658;2023-09-18T07:19:59;99736.13;;;20.14;100.00
29121;BME280;16191;49.548;8.658;2023-09-18T07:22:26;99735.72;;;20.19;100.00
29121;BME280;16191;49.548;8.658;2023-09-18T07:24:56;99736.13;;;20.14;100.00
29121;BME280;16191;49.548;8.658;2023-09-18T07:27:23;99743.69;;;20.29;100.00
29121;BME280;16191;49.548;8.658;2023-09-18T07:29:49;99742.16;;;20.26;100.00
29121;BME280;16191;49.548;8.658;2023-09-18T07:32:16;99744.81;;;20.26;100.00
29121;BME280;16191;49.548;8.658;2023-09-18T07:35:03;99747.44;;;20.36;100.00
29121;BME280;16191;49.548;8.658;2023-09-18T07:37:33;99740.34;;;20.36;100.00
29121;BME280;16191;49.548;8.658;2023-09-18T07:40:00;99748.75;;;20.41;100.00
29121;BME280;16191;49.548;8.658;2023-09-18T07:42:27;99742.75;;;20.39;100.00
29121;BME280;16191;49.548;8.658;2023-09-18T07:44:54;99736.63;;;20.39;100.00
29121;BME280;16191;49.548;8.658;2023-09-18T07:47:24;99743.72;;;20.38;100.00
29121;BME280;16191;49.548;8.658;2023-09-18T07:49:51;99752.53;;;20.48;100.00
29121;BME280;16191;49.548;8.658;2023-09-18T07:52:18;99744.59;;;20.48;100.00
29121;BME280;16191;49.548;8.658;2023-09-18T07:54:44;99753.25;;;20.50;100.00
29121;BME280;16191;49.548;8.658;2023-09-18T07:57:11;99753.09;;;20.42;100.00
29121;BME280;16191;49.548;8.658;2023-09-18T07:59:38;99765.50;;;20.42;100.00
29121;BME280;16191;49.548;8.658;2023-09-18T08:02:08;99772.34;;;20.44;100.00
29121;BME280;16191;49.548;8.658;2023-09-18T08:04:38;99769.16;;;20.50;100.00
29121;BME280;16191;49.548;8.658;2023-09-18T08:07:05;99769.59;;;20.56;100.00
29121;BME280;16191;49.548;8.658;2023-09-18T08:09:33;99780.31;;;20.54;100.00
29121;BME280;16191;49.548;8.658;2023-09-18T08:12:03;99789.25;;;20.53;100.00
29121;BME280;16191;49.548;8.658;2023-09-18T08:14:30;99780.03;;;20.57;100.00
29121;BME280;16191;49.548;8.658;2023-09-18T08:16:58;99788.13;;;20.56;100.00
29121;BME280;16191;49.548;8.658;2023-09-18T08:19:26;99784.50;;;20.57;100.00
29121;BME280;16191;49.548;8.658;2023-09-18T08:21:55;99776.81;;;20.63;100.00
29121;BME280;16191;49.548;8.658;2023-09-18T08:24:30;99765.13;;;20.66;100.00
29121;BME280;16191;49.548;8.658;2023-09-18T08:26:57;99769.00;;;20.62;100.00
29121;BME280;16191;49.548;8.658;2023-09-18T08:29:24;99754.06;;;20.61;100.00
29121;BME280;16191;49.548;8.658;2023-09-18T08:31:51;99755.91;;;20.60;100.00
29121;BME280;16191;49.548;8.658;2023-09-18T08:34:17;99754.06;;;20.61;100.00
29121;BME280;16191;49.548;8.658;2023-09-18T08:36:47;99751.59;;;20.69;100.00
29121;BME280;16191;49.548;8.658;2023-09-18T08:39:14;99768.31;;;20.60;100.00
29121;BME280;16191;49.548;8.658;2023-09-18T08:41:42;99742.63;;;20.60;100.00
29121;BME280;16191;49.548;8.658;2023-09-18T08:44:09;99739.56;;;20.65;100.00
29121;BME280;16191;49.548;8.658;2023-09-18T08:46:37;99742.50;;;20.62;100.00
29121;BME280;16191;49.548;8.658;2023-09-18T08:49:04;99740.81;;;20.61;100.00
29121;BME280;16191;49.548;8.658;2023-09-18T08:51:32;99726.34;;;20.55;100.00
29121;BME280;16191;49.548;8.658;2023-09-18T08:54:00;99722.16;;;20.52;100.00
29121;BME280;16191;49.548;8.658;2023-09-18T08:56:27;99721.88;;;20.56;100.00
29121;BME280;16191;49.548;8.658;2023-09-18T08:58:54;99717.53;;;20.45;100.00
29121;BME280;16191;49.548;8.658;2023-09-18T09:01:23;99709.84;;;20.61;100.00
29121;BME280;16191;49.548;8.658;2023-09-18T09:03:49;99718.91;;;20.59;100.00
29121;BME280;16191;49.548;8.658;2023-09-18T09:06:16;99722.97;;;20.43;100.00
29121;BME280;16191;49.548;8.658;2023-09-18T09:08:43;99731.47;;;20.47;100.00
29121;BME280;16191;49.548;8.658;2023-09-18T09:11:10;99731.47;;;20.47;100.00
29121;BME280;16191;49.548;8.658;2023-09-18T09:13:36;99739.56;;;20.65;100.00
29121;BME280;16191;49.548;8.658;2023-09-18T09:16:12;99746.00;;;20.62;100.00
29121;BME280;16191;49.548;8.658;2023-09-18T09:18:48;99734.41;;;20.63;100.00
29121;BME280;16191;49.548;8.658;2023-09-18T09:21:16;99732.88;;;20.70;100.00
29121;BME280;16191;49.548;8.658;2023-09-18T09:23:48;99729.00;;;20.74;100.00
29121;BME280;16191;49.548;8.658;2023-09-18T09:26:17;99739.88;;;20.71;100.00
29121;BME280;16191;49.548;8.658;2023-09-18T09:28:44;99756.47;;;20.73;100.00
29121;BME280;16191;49.548;8.658;2023-09-18T09:31:22;99758.56;;;20.70;100.00
29121;BME280;16191;49.548;8.658;2023-09-18T09:33:52;99769.03;;;20.71;100.00
29121;BME280;16191;49.548;8.658;2023-09-18T09:36:25;99769.16;;;20.70;100.00
29121;BME280;16191;49.548;8.658;2023-09-18T09:38:57;99789.28;;;20.72;100.00
29121;BME280;16191;49.548;8.658;2023-09-18T09:41:26;99795.53;;;20.62;100.00
29121;BME280;16191;49.548;8.658;2023-09-18T09:43:54;99797.63;;;20.68;100.00
29121;BME280;16191;49.548;8.658;2023-09-18T09:46:25;99794.56;;;20.72;100.00
29121;BME280;16191;49.548;8.658;2023-09-18T09:49:03;99802.78;;;20.69;100.00
29121;BME280;16191;49.548;8.658;2023-09-18T09:51:32;99794.16;;;20.77;100.00
29121;BME280;16191;49.548;8.658;2023-09-18T09:54:00;99793.47;;;20.75;100.00
29121;BME280;16191;49.548;8.658;2023-09-18T09:56:42;99793.31;;;20.76;100.00
29121;BME280;16191;49.548;8.658;2023-09-18T09:59:12;99792.06;;;20.71;100.00
29121;BME280;16191;49.548;8.658;2023-09-18T10:01:39;99774.34;;;20.71;100.00
29121;BME280;16191;49.548;8.658;2023-09-18T10:04:17;99767.78;;;20.75;100.00
29121;BME280;16191;49.548;8.658;2023-09-18T10:06:50;99769.31;;;20.78;100.00
29121;BME280;16191;49.548;8.658;2023-09-18T10:09:19;99758.84;;;20.76;100.00
29121;BME280;16191;49.548;8.658;2023-09-18T10:11:49;99753.41;;;20.87;100.00
29121;BME280;16191;49.548;8.658;2023-09-18T10:14:37;99745.84;;;20.83;100.00
29121;BME280;16191;49.548;8.658;2023-09-18T10:17:26;99750.59;;;20.89;100.00
29121;BME280;16191;49.548;8.658;2023-09-18T10:20:01;99743.06;;;20.94;100.00
29121;BME280;16191;49.548;8.658;2023-09-18T10:22:39;99759.69;;;20.96;100.00
29121;BME280;16191;49.548;8.658;2023-09-18T10:25:18;99767.78;;;20.95;100.00
29121;BME280;16191;49.548;8.658;2023-09-18T10:27:48;99765.81;;;21.06;100.00
29121;BME280;16191;49.548;8.658;2023-09-18T10:30:25;99766.78;;;21.25;100.00
29121;BME280;16191;49.548;8.658;2023-09-18T10:32:53;99773.22;;;21.22;100.00
29121;BME280;16191;49.548;8.658;2023-09-18T10:35:21;99766.78;;;21.25;100.00
29121;BME280;16191;49.548;8.658;2023-09-18T10:37:49;99755.19;;;21.26;100.00
29121;BME280;16191;49.548;8.658;2023-09-18T10:40:21;99751.97;;;21.32;100.00
29121;BME280;16191;49.548;8.658;2023-09-18T10:42:50;99756.44;;;21.31;100.00
29121;BME280;16191;49.548;8.658;2023-09-18T10:45:17;99756.97;;;21.44;100.00
29121;BME280;16191;49.548;8.658;2023-09-18T10:47:46;99754.16;;;21.46;100.00
29121;BME280;16191;49.548;8.658;2023-09-18T10:50:25;99753.03;;;21.58;100.00
29121;BME280;16191;49.548;8.658;2023-09-18T10:52:53;99753.53;;;21.71;100.00
29121;BME280;16191;49.548;8.658;2023-09-18T10:55:21;99758.19;;;21.97;100.00
29121;BME280;16191;49.548;8.658;2023-09-18T10:57:56;99767.47;;;22.20;100.00
29121;BME280;16191;49.548;8.658;2023-09-18T11:00:31;99763.03;;;22.11;100.00
29121;BME280;16191;49.548;8.658;2023-09-18T11:03:12;99746.22;;;22.38;100.00
29121;BME280;16191;49.548;8.658;2023-09-18T11:05:39;99762.38;;;22.72;100.00
29121;BME280;16191;49.548;8.658;2023-09-18T11:11:08;99752.50;;;22.64;100.00
29121;BME280;16191;49.548;8.658;2023-09-18T11:13:43;99759.03;;;23.05;100.00
29121;BME280;16191;49.548;8.658;2023-09-18T11:19:13;99752.75;;;22.88;100.00
29121;BME280;16191;49.548;8.658;2023-09-18T11:21:43;99744.00;;;22.78;100.00
29121;BME280;16191;49.548;8.658;2023-09-18T11:24:30;99753.50;;;22.81;100.00
29121;BME280;16191;49.548;8.658;2023-09-18T11:26:57;99750.16;;;22.79;100.00
29121;BME280;16191;49.548;8.658;2023-09-18T11:29:23;99743.38;;;23.02;100.00
29121;BME280;16191;49.548;8.658;2023-09-18T11:31:55;99767.88;;;22.88;100.00
29121;BME280;16191;49.548;8.658;2023-09-18T11:34:29;99743.94;;;22.88;100.00
29121;BME280;16191;49.548;8.658;2023-09-18T11:36:59;99742.16;;;23.14;100.00
29121;BME280;16191;49.548;8.658;2023-09-18T11:39:39;99751.75;;;22.89;100.00
29121;BME280;16191;49.548;8.658;2023-09-18T11:42:08;99761.28;;;23.18;100.00
29121;BME280;16191;49.548;8.658;2023-09-18T11:44:37;99764.13;;;23.42;100.00
29121;BME280;16191;49.548;8.658;2023-09-18T11:47:10;99756.59;;;23.12;100.00
29121;BME280;16191;49.548;8.658;2023-09-18T11:49:51;99751.31;;;23.20;100.00
29121;BME280;16191;49.548;8.658;2023-09-18T11:52:24;99752.53;;;23.25;100.00
29121;BME280;16191;49.548;8.658;2023-09-18T11:54:52;99759.69;;;23.51;100.00
29121;BME280;16191;49.548;8.658;2023-09-18T11:57:19;99758.13;;;23.58;100.00
29121;BME280;16191;49.548;8.658;2023-09-18T11:59:46;99757.84;;;23.69;100.00
29121;BME280;16191;49.548;8.658;2023-09-18T12:02:33;99752.53;;;23.51;100.00
29121;BME280;16191;49.548;8.658;2023-09-18T12:05:09;99761.69;;;23.49;100.00
29121;BME280;16191;49.548;8.658;2023-09-18T12:07:36;99761.56;;;23.84;100.00
29121;BME280;16191;49.548;8.658;2023-09-18T12:10:05;99760.41;;;23.87;100.00
29121;BME280;16191;49.548;8.658;2023-09-18T12:12:35;99765.16;;;24.09;100.00
29121;BME280;16191;49.548;8.658;2023-09-18T12:15:02;99761.06;;;24.23;100.00
29121;BME280;16191;49.548;8.658;2023-09-18T12:17:30;99758.00;;;24.44;100.00
29121;BME280;16191;49.548;8.658;2023-09-18T12:19:56;99751.94;;;24.25;100.00
29121;BME280;16191;49.548;8.658;2023-09-18T12:22:27;99752.16;;;23.98;100.00
29121;BME280;16191;49.548;8.658;2023-09-18T12:25:13;99753.63;;;23.58;100.00
29121;BME280;16191;49.548;8.658;2023-09-18T12:27:43;99761.63;;;23.67;100.00
29121;BME280;16191;49.548;8.658;2023-09-18T12:30:11;99764.00;;;23.70;100.00
29121;BME280;16191;49.548;8.658;2023-09-18T12:32:38;99760.00;;;23.48;100.00
29121;BME280;16191;49.548;8.658;2023-09-18T12:35:06;99766.22;;;23.82;100.00
29121;BME280;16191;49.548;8.658;2023-09-18T12:37:40;99763.63;;;23.65;100.00
29121;BME280;16191;49.548;8.658;2023-09-18T12:40:21;99757.84;;;24.03;100.00
29121;BME280;16191;49.548;8.658;2023-09-18T12:42:50;99751.72;;;24.19;100.00
29121;BME280;16191;49.548;8.658;2023-09-18T12:45:17;99761.16;;;24.05;100.00
29121;BME280;16191;49.548;8.658;2023-09-18T12:47:44;99765.38;;;24.16;100.00
29121;BME280;16191;49.548;8.658;2023-09-18T12:50:14;99759.84;;;24.01;100.00
29121;BME280;16191;49.548;8.658;2023-09-18T12:52:41;99770.81;;;23.98;100.00
29121;BME280;16191;49.548;8.658;2023-09-18T12:55:08;99755.53;;;23.74;100.00
29121;BME280;16191;49.548;8.658;2023-09-18T12:57:35;99750.13;;;23.92;100.00
29121;BME280;16191;49.548;8.658;2023-09-18T13:00:09;99751.88;;;23.75;100.00
29121;BME280;16191;49.548;8.658;2023-09-18T13:02:39;99750.31;;;23.65;100.00
29121;BME280;16191;49.548;8.658;2023-09-18T13:05:06;99749.00;;;23.69;100.00
29121;BME280;16191;49.548;8.658;2023-09-18T13:07:43;99748.09;;;23.86;100.00
29121;BME280;16191;49.548;8.658;2023-09-18T13:10:11;99758.22;;;23.82;100.00
29121;BME280;16191;49.548;8.658;2023-09-18T13:12:41;99739.00;;;24.05;100.00